Resums METAR propers

 

LEGE - Gerona/Costa Bra, Spain
DistÓncia des de l'estaciˇ: S 12km
Actualitzaciˇ: 07/07/2020 13:30
Parcialment cobert
Parcialment cobert
 Vent del SO
Vent: SO 6 km/h
Temperatura: 82°F , 28°C
Temp. xafogor: 83°F , 28°C
Rosada: 63°F , 17°C
Humitat: 51%
Bar˛metre: 1016 hPa
Nuvolositat: Parcialment cobert
Visibilitat: 10 km
Detalls nuvolositat: Parcialment cobert 3000 ft
2020/07/07 11:30 LEGE 071130Z 22003KT 170V290 9999 SCT030 28/17 Q1016